createdAt,value
2018-07-25T00:02:10.524Z,15.33
2018-07-25T00:04:38.674Z,15.30
2018-07-25T00:07:06.825Z,15.80
2018-07-25T00:09:34.995Z,15.60
2018-07-25T00:12:03.271Z,15.77
2018-07-25T00:14:31.430Z,14.97
2018-07-25T00:16:59.573Z,15.00
2018-07-25T00:19:27.731Z,14.95
2018-07-25T00:21:55.865Z,15.87
2018-07-25T00:24:24.026Z,16.20
2018-07-25T00:26:52.306Z,16.20
2018-07-25T00:29:20.225Z,16.93
2018-07-25T00:31:48.430Z,15.87
2018-07-25T00:34:16.590Z,16.53
2018-07-25T00:36:44.741Z,16.47
2018-07-25T00:39:12.891Z,15.83
2018-07-25T00:41:41.034Z,16.00
2018-07-25T00:44:09.186Z,16.67
2018-07-25T00:46:37.386Z,17.10
2018-07-25T00:49:05.541Z,16.10
2018-07-25T00:51:33.681Z,16.57
2018-07-25T00:54:01.846Z,15.63
2018-07-25T00:56:29.982Z,16.30
2018-07-25T00:58:58.186Z,17.17
2018-07-25T01:01:26.341Z,16.52
2018-07-25T01:03:54.606Z,16.80
2018-07-25T01:06:22.767Z,16.50
2018-07-25T01:08:50.919Z,16.73
2018-07-25T01:11:19.070Z,17.83
2018-07-25T01:13:47.238Z,15.83
2018-07-25T01:16:15.392Z,15.77
2018-07-25T01:18:43.543Z,16.77
2018-07-25T01:21:11.729Z,18.00
2018-07-25T01:23:39.876Z,16.90
2018-07-25T01:26:08.076Z,16.57
2018-07-25T01:28:36.239Z,18.37
2018-07-25T01:31:04.406Z,16.73
2018-07-25T01:33:32.566Z,17.92
2018-07-25T01:36:00.731Z,16.60
2018-07-25T01:38:28.919Z,16.97
2018-07-25T01:40:57.074Z,17.20
2018-07-25T01:43:25.246Z,18.45
2018-07-25T01:45:53.394Z,17.13
2018-07-25T01:48:21.539Z,17.60
2018-07-25T01:50:49.722Z,17.93
2018-07-25T01:53:18.482Z,17.50
2018-07-25T01:55:46.627Z,17.73
2018-07-25T01:58:14.858Z,16.80
2018-07-25T02:00:43.028Z,17.53
2018-07-25T02:03:11.173Z,17.60
2018-07-25T02:05:39.329Z,17.33
2018-07-25T02:08:07.521Z,17.43
2018-07-25T02:10:38.067Z,17.30
2018-07-25T02:13:06.477Z,16.90
2018-07-25T02:15:34.636Z,18.23
2018-07-25T02:18:02.831Z,16.73
2018-07-25T02:20:30.998Z,17.45
2018-07-25T02:22:59.234Z,17.30
2018-07-25T02:25:27.412Z,19.07
2018-07-25T02:27:55.603Z,16.53
2018-07-25T02:30:23.775Z,18.37
2018-07-25T02:32:51.927Z,18.30
2018-07-25T02:35:20.111Z,16.30
2018-07-25T02:37:48.302Z,18.70
2018-07-25T02:40:16.563Z,17.57
2018-07-25T02:42:44.711Z,17.90
2018-07-25T02:45:12.874Z,17.07
2018-07-25T02:47:41.022Z,17.93
2018-07-25T02:50:09.166Z,17.90
2018-07-25T02:52:37.347Z,16.80
2018-07-25T02:55:06.075Z,18.03
2018-07-25T02:57:34.220Z,17.77
2018-07-25T03:00:02.383Z,17.47
2018-07-25T03:02:31.562Z,16.50
2018-07-25T03:04:59.721Z,18.27
2018-07-25T03:07:27.916Z,17.17
2018-07-25T03:09:56.080Z,17.53
2018-07-25T03:12:24.246Z,19.27
2018-07-25T03:14:52.452Z,16.90
2018-07-25T03:17:20.673Z,17.73
2018-07-25T03:19:48.931Z,17.92
2018-07-25T03:22:17.150Z,16.20
2018-07-25T03:24:45.310Z,16.97
2018-07-25T03:27:13.450Z,17.83
2018-07-25T03:29:41.614Z,16.60
2018-07-25T03:32:09.815Z,17.50
2018-07-25T03:34:37.962Z,16.77
2018-07-25T03:37:06.125Z,18.03
2018-07-25T03:39:34.265Z,17.50
2018-07-25T03:42:02.437Z,17.90
2018-07-25T03:44:30.646Z,17.23
2018-07-25T03:46:58.798Z,18.07
2018-07-25T03:49:26.953Z,18.50
2018-07-25T03:51:55.110Z,18.10
2018-07-25T03:54:23.279Z,17.45
2018-07-25T03:56:51.426Z,18.17
2018-07-25T03:59:19.598Z,17.57
2018-07-25T04:01:47.746Z,17.50
2018-07-25T04:04:16.003Z,17.60
2018-07-25T04:06:44.187Z,18.10
2018-07-25T04:09:12.437Z,18.70
2018-07-25T04:11:40.634Z,18.70
2018-07-25T04:14:08.851Z,16.80
2018-07-25T04:16:37.046Z,17.90
2018-07-25T04:19:05.334Z,18.48
2018-07-25T04:21:33.490Z,18.45
2018-07-25T04:24:01.697Z,18.93
2018-07-25T04:26:29.883Z,17.73
2018-07-25T04:28:58.374Z,18.50
2018-07-25T04:31:26.678Z,17.07
2018-07-25T04:33:54.850Z,19.70
2018-07-25T04:36:23.018Z,17.80
2018-07-25T04:38:51.366Z,18.07
2018-07-25T04:41:19.521Z,18.30
2018-07-25T04:43:47.682Z,18.47
2018-07-25T04:46:17.091Z,18.17
2018-07-25T04:48:45.156Z,18.33
2018-07-25T04:51:13.359Z,17.87
2018-07-25T04:53:41.498Z,18.20
2018-07-25T04:56:09.735Z,17.67
2018-07-25T04:58:38.615Z,17.70
2018-07-25T05:01:07.161Z,19.07
2018-07-25T05:03:35.349Z,17.50
2018-07-25T05:06:03.509Z,18.93
2018-07-25T05:08:31.674Z,18.25
2018-07-25T05:10:59.842Z,17.73
2018-07-25T05:13:28.451Z,18.30
2018-07-25T05:15:56.386Z,18.13
2018-07-25T05:18:24.534Z,18.33
2018-07-25T05:20:52.691Z,17.10
2018-07-25T05:23:20.889Z,19.50
2018-07-25T05:25:48.992Z,17.23
2018-07-25T05:28:17.142Z,19.10
2018-07-25T05:30:45.403Z,17.93
2018-07-25T05:33:13.634Z,18.47
2018-07-25T05:35:41.794Z,19.00
2018-07-25T05:38:09.977Z,18.60
2018-07-25T05:40:38.126Z,18.48
2018-07-25T05:43:06.282Z,17.70
2018-07-25T05:45:34.426Z,18.77
2018-07-25T05:48:02.564Z,17.90
2018-07-25T05:50:30.762Z,19.48
2018-07-25T05:52:58.969Z,18.37
2018-07-25T05:55:27.106Z,17.70
2018-07-25T05:57:55.274Z,18.10
2018-07-25T06:00:23.418Z,17.40
2018-07-25T06:02:51.645Z,18.73
2018-07-25T06:05:19.787Z,17.30
2018-07-25T06:07:47.708Z,17.73
2018-07-25T06:10:15.877Z,18.50
2018-07-25T06:12:44.108Z,17.83
2018-07-25T06:15:12.229Z,18.03
2018-07-25T06:17:40.408Z,17.30
2018-07-25T06:20:09.506Z,17.03
2018-07-25T06:22:39.055Z,17.17
2018-07-25T06:25:07.317Z,17.57
2018-07-25T06:27:35.479Z,18.30
2018-07-25T06:30:03.674Z,17.50
2018-07-25T06:32:31.846Z,16.40
2018-07-25T06:34:59.770Z,16.47
2018-07-25T06:37:27.931Z,17.17
2018-07-25T06:39:56.172Z,16.50
2018-07-25T06:42:24.342Z,17.43
2018-07-25T06:44:52.497Z,17.93
2018-07-25T06:47:20.662Z,17.30
2018-07-25T06:49:48.849Z,17.20
2018-07-25T06:52:17.004Z,16.07
2018-07-25T06:54:45.320Z,16.87
2018-07-25T06:57:13.490Z,16.60
2018-07-25T06:59:41.654Z,16.60
2018-07-25T07:02:09.854Z,17.10
2018-07-25T07:04:37.993Z,15.57
2018-07-25T07:07:06.282Z,15.47
2018-07-25T07:09:34.226Z,16.10
2018-07-25T07:12:02.455Z,14.77
2018-07-25T07:14:30.592Z,15.30
2018-07-25T07:16:58.741Z,15.07
2018-07-25T07:19:26.888Z,15.80
2018-07-25T07:21:55.535Z,14.83
2018-07-25T07:24:23.722Z,14.70
2018-07-25T07:26:51.835Z,13.70
2018-07-25T07:29:19.982Z,13.20
2018-07-25T07:31:48.135Z,13.93
2018-07-25T07:34:16.296Z,13.83
2018-07-25T07:36:44.440Z,12.60
2018-07-25T07:39:13.766Z,13.07
2018-07-25T07:41:42.246Z,11.83
2018-07-25T07:44:10.544Z,11.63
2018-07-25T07:46:38.718Z,12.00
2018-07-25T07:49:06.879Z,12.20
2018-07-25T07:51:35.043Z,12.53
2018-07-25T07:54:03.280Z,12.30
2018-07-25T07:56:31.346Z,10.48
2018-07-25T07:58:59.599Z,10.30
2018-07-25T08:01:27.882Z,10.35
2018-07-25T08:03:56.038Z,11.97
2018-07-25T08:06:24.290Z,9.00
2018-07-25T08:08:52.472Z,9.90
2018-07-25T08:11:20.939Z,8.93
2018-07-25T08:13:49.919Z,9.83
2018-07-25T08:16:18.270Z,9.60
2018-07-25T08:18:46.453Z,8.60
2018-07-25T08:21:14.786Z,8.77
2018-07-25T08:23:44.163Z,8.60
2018-07-25T08:26:12.487Z,8.77
2018-07-25T08:28:43.355Z,8.73
2018-07-25T08:31:11.487Z,9.10
2018-07-25T08:33:39.645Z,8.17
2018-07-25T08:36:07.796Z,8.43
2018-07-25T08:38:39.069Z,8.87
2018-07-25T08:41:07.538Z,8.20
2018-07-25T08:43:37.047Z,8.57
2018-07-25T08:46:05.920Z,9.00
2018-07-25T08:48:34.090Z,8.95
2018-07-25T08:51:02.573Z,8.77
2018-07-25T08:53:30.721Z,9.30
2018-07-25T08:55:58.899Z,7.63
2018-07-25T08:58:27.181Z,8.20
2018-07-25T09:00:55.391Z,8.90
2018-07-25T09:03:23.907Z,8.55
2018-07-25T09:05:52.038Z,8.97
2018-07-25T09:08:20.201Z,9.93
2018-07-25T09:10:48.366Z,9.30
2018-07-25T09:13:16.649Z,9.63
2018-07-25T09:15:44.947Z,9.47
2018-07-25T09:18:13.171Z,9.97
2018-07-25T09:20:41.270Z,8.60
2018-07-25T09:23:09.444Z,8.30
2018-07-25T09:25:37.666Z,8.40
2018-07-25T09:28:05.937Z,8.97
2018-07-25T09:30:34.242Z,8.65
2018-07-25T09:33:02.423Z,8.60
2018-07-25T09:35:30.571Z,8.63
2018-07-25T09:37:58.840Z,8.70
2018-07-25T09:40:26.997Z,8.25
2018-07-25T09:42:55.147Z,9.10
2018-07-25T09:45:23.378Z,8.77
2018-07-25T09:47:51.530Z,8.23
2018-07-25T09:50:19.834Z,8.03
2018-07-25T09:52:47.998Z,8.27
2018-07-25T09:55:16.261Z,9.47
2018-07-25T09:57:44.490Z,8.77
2018-07-25T10:00:16.972Z,8.37
2018-07-25T10:02:45.091Z,8.53
2018-07-25T10:05:13.256Z,8.07
2018-07-25T10:07:41.516Z,8.83
2018-07-25T10:10:09.659Z,9.30
2018-07-25T10:12:37.875Z,8.17
2018-07-25T10:15:06.058Z,8.97
2018-07-25T10:17:34.165Z,8.63
2018-07-25T10:20:02.311Z,8.70
2018-07-25T10:22:30.483Z,9.00
2018-07-25T10:24:58.610Z,8.07
2018-07-25T10:27:26.767Z,8.40
2018-07-25T10:29:54.885Z,9.03
2018-07-25T10:32:23.046Z,9.30
2018-07-25T10:34:51.204Z,8.53
2018-07-25T10:37:19.839Z,9.43
2018-07-25T10:39:48.007Z,8.80
2018-07-25T10:42:16.162Z,8.60
2018-07-25T10:44:44.329Z,9.00
2018-07-25T10:47:12.711Z,8.90
2018-07-25T10:49:40.858Z,8.93
2018-07-25T10:52:08.812Z,8.80
2018-07-25T10:54:37.011Z,9.07
2018-07-25T10:57:05.187Z,9.10
2018-07-25T10:59:33.326Z,9.30
2018-07-25T11:02:01.569Z,9.90
2018-07-25T11:04:29.688Z,9.87
2018-07-25T11:06:57.884Z,10.00
2018-07-25T11:09:26.031Z,9.97
2018-07-25T11:11:54.191Z,8.67
2018-07-25T11:14:22.326Z,8.10
2018-07-25T11:16:50.474Z,8.80
2018-07-25T11:19:18.623Z,8.90
2018-07-25T11:21:46.818Z,7.73
2018-07-25T11:24:14.967Z,7.67
2018-07-25T11:26:43.128Z,7.97
2018-07-25T11:29:11.347Z,8.10
2018-07-25T11:31:39.637Z,8.70
2018-07-25T11:34:07.779Z,7.67
2018-07-25T11:36:35.714Z,8.25
2018-07-25T11:39:15.317Z,7.30
2018-07-25T11:41:43.467Z,7.80
2018-07-25T11:44:11.643Z,7.03
2018-07-25T11:46:39.819Z,7.50
2018-07-25T11:49:07.979Z,6.30
2018-07-25T11:51:36.134Z,6.60
2018-07-25T11:54:04.275Z,6.87
2018-07-25T11:56:32.435Z,7.20
2018-07-25T11:59:00.624Z,7.30
2018-07-25T12:01:30.631Z,6.13
2018-07-25T12:03:59.051Z,6.50
2018-07-25T12:06:27.239Z,6.97
2018-07-25T12:08:55.551Z,6.30
2018-07-25T12:11:23.763Z,7.20
2018-07-25T12:13:51.929Z,7.13
2018-07-25T12:16:20.223Z,6.93
2018-07-25T12:18:48.505Z,6.03
2018-07-25T12:21:16.817Z,6.47
2018-07-25T12:23:44.991Z,6.03
2018-07-25T12:26:13.186Z,6.43
2018-07-25T12:28:41.419Z,6.10
2018-07-25T12:31:09.585Z,5.53
2018-07-25T12:33:37.650Z,5.85
2018-07-25T12:36:06.008Z,6.30
2018-07-25T12:38:34.250Z,5.60
2018-07-25T12:41:03.419Z,6.17
2018-07-25T12:43:31.398Z,5.45
2018-07-25T12:45:59.574Z,5.17
2018-07-25T12:48:27.808Z,5.90
2018-07-25T12:50:55.898Z,5.63
2018-07-25T12:53:24.092Z,6.03
2018-07-25T12:55:52.560Z,6.30
2018-07-25T12:58:20.705Z,6.93
2018-07-25T13:00:48.941Z,6.63
2018-07-25T13:03:17.190Z,6.60
2018-07-25T13:05:45.402Z,6.57
2018-07-25T13:08:13.557Z,6.17
2018-07-25T13:10:41.707Z,5.93
2018-07-25T13:13:09.850Z,5.50
2018-07-25T13:15:37.986Z,5.73
2018-07-25T13:18:06.260Z,5.47
2018-07-25T13:20:34.389Z,5.50
2018-07-25T13:23:02.579Z,5.73
2018-07-25T13:25:30.694Z,6.00
2018-07-25T13:27:58.849Z,5.57
2018-07-25T13:30:26.990Z,6.80
2018-07-25T13:32:54.905Z,6.13
2018-07-25T13:35:23.039Z,5.63
2018-07-25T13:37:51.218Z,6.42
2018-07-25T13:40:20.266Z,5.57
2018-07-25T13:42:48.535Z,6.40
2018-07-25T13:45:16.689Z,5.30
2018-07-25T13:47:44.834Z,5.83
2018-07-25T13:50:12.974Z,5.47
2018-07-25T13:52:41.169Z,4.90
2018-07-25T13:55:09.297Z,5.00
2018-07-25T13:57:37.450Z,4.85
2018-07-25T14:00:07.483Z,5.23
2018-07-25T14:02:35.642Z,4.83
2018-07-25T14:05:03.773Z,4.63
2018-07-25T14:07:31.906Z,4.53
2018-07-25T14:10:00.369Z,5.07
2018-07-25T14:12:28.544Z,4.50
2018-07-25T14:14:56.687Z,4.33
2018-07-25T14:17:24.903Z,4.42
2018-07-25T14:19:53.122Z,4.70
2018-07-25T14:22:21.297Z,4.60
2018-07-25T14:24:49.453Z,5.00
2018-07-25T14:27:17.884Z,3.90
2018-07-25T14:29:46.026Z,5.17
2018-07-25T14:32:14.178Z,5.30
2018-07-25T14:34:42.412Z,5.95
2018-07-25T14:37:10.559Z,5.83
2018-07-25T14:39:38.766Z,6.17
2018-07-25T14:42:06.921Z,5.90
2018-07-25T14:44:35.147Z,5.67
2018-07-25T14:47:03.365Z,5.90
2018-07-25T14:49:31.417Z,7.65
2018-07-25T14:51:59.589Z,6.35
2018-07-25T14:54:27.819Z,5.70
2018-07-25T14:56:55.900Z,5.90
2018-07-25T14:59:24.062Z,6.33
2018-07-25T15:01:52.209Z,7.43
2018-07-25T15:04:20.471Z,8.90
2018-07-25T15:06:48.618Z,10.00
2018-07-25T15:09:16.782Z,11.57
2018-07-25T15:11:45.015Z,13.73
2018-07-25T15:14:13.174Z,16.70
2018-07-25T15:16:41.338Z,14.97
2018-07-25T15:19:09.500Z,13.93
2018-07-25T15:21:37.658Z,15.28
2018-07-25T15:24:07.083Z,15.83
2018-07-25T15:26:35.226Z,16.80
2018-07-25T15:29:03.809Z,16.67
2018-07-25T15:31:31.942Z,14.85
2018-07-25T15:34:00.226Z,15.03
2018-07-25T15:36:51.691Z,15.67
2018-07-25T15:39:24.184Z,15.13
2018-07-25T15:41:53.549Z,16.07
2018-07-25T15:44:22.570Z,16.13
2018-07-25T15:46:50.773Z,15.40
2018-07-25T15:49:18.948Z,14.43
2018-07-25T15:51:47.102Z,18.27
2018-07-25T15:54:15.389Z,16.27
2018-07-25T15:56:43.545Z,15.43
2018-07-25T15:59:11.728Z,16.27
2018-07-25T16:01:39.918Z,15.30
2018-07-25T16:04:08.535Z,14.30
2018-07-25T16:06:36.707Z,13.73
2018-07-25T16:09:09.288Z,13.10
2018-07-25T16:11:37.766Z,13.08
2018-07-25T16:14:08.719Z,12.50
2018-07-25T16:16:37.920Z,11.45
2018-07-25T16:19:07.369Z,11.27
2018-07-25T16:21:43.566Z,12.33
2018-07-25T16:24:11.816Z,12.43
2018-07-25T16:26:39.936Z,12.90
2018-07-25T16:29:09.298Z,12.93
2018-07-25T16:31:37.521Z,13.30
2018-07-25T16:34:06.768Z,13.73
2018-07-25T16:36:35.279Z,13.53
2018-07-25T16:39:05.559Z,12.83
2018-07-25T16:41:33.768Z,11.65
2018-07-25T16:44:01.955Z,12.95
2018-07-25T16:46:30.125Z,12.77
2018-07-25T16:48:58.370Z,12.40
2018-07-25T16:51:26.593Z,13.20
2018-07-25T16:59:40.698Z,12.20
2018-07-25T17:02:08.617Z,12.30
2018-07-25T17:04:36.799Z,11.43
2018-07-25T17:07:06.086Z,12.80
2018-07-25T17:09:34.246Z,10.70
2018-07-25T17:12:02.405Z,11.60
2018-07-25T17:14:30.742Z,9.70
2018-07-25T17:16:58.875Z,9.60
2018-07-25T17:19:27.166Z,9.24
2018-07-25T17:21:55.302Z,10.03
2018-07-25T17:24:23.538Z,9.67
2018-07-25T17:26:51.705Z,10.70
2018-07-25T17:29:20.545Z,10.97
2018-07-25T17:31:48.774Z,9.50
2018-07-25T17:34:17.190Z,9.77
2018-07-25T17:36:45.322Z,8.53
2018-07-25T17:39:13.504Z,13.10
2018-07-25T17:41:43.770Z,11.97
2018-07-25T17:44:11.917Z,9.70
2018-07-25T17:46:40.438Z,9.53
2018-07-25T17:49:08.561Z,9.00
2018-07-25T17:51:39.098Z,9.08
2018-07-25T17:54:08.134Z,10.10
2018-07-25T17:56:36.498Z,10.50
2018-07-25T17:59:04.650Z,11.40
2018-07-25T18:01:32.821Z,11.03
2018-07-25T18:04:00.718Z,9.87
2018-07-25T18:06:28.884Z,8.43
2018-07-25T18:08:57.234Z,8.20
2018-07-25T18:11:25.378Z,7.90
2018-07-25T18:13:58.932Z,7.30
2018-07-25T18:16:27.081Z,6.73
2018-07-25T18:18:55.562Z,6.70
2018-07-25T18:21:23.705Z,6.67
2018-07-25T18:23:51.981Z,7.40
2018-07-25T18:26:21.238Z,7.20
2018-07-25T18:28:49.513Z,7.17
2018-07-25T18:31:17.789Z,5.97
2018-07-25T18:33:45.916Z,6.97
2018-07-25T18:36:14.093Z,6.10
2018-07-25T18:38:42.226Z,5.77
2018-07-25T18:41:10.546Z,5.70
2018-07-25T18:43:38.682Z,6.07
2018-07-25T18:46:07.284Z,5.90
2018-07-25T18:48:35.461Z,5.17
2018-07-25T18:51:03.701Z,5.50
2018-07-25T18:53:31.828Z,4.37
2018-07-25T18:56:06.494Z,4.63
2018-07-25T18:58:34.798Z,5.35
2018-07-25T19:01:02.999Z,4.63
2018-07-25T19:03:31.198Z,4.53
2018-07-25T19:05:59.320Z,4.33
2018-07-25T19:08:28.029Z,4.30
2018-07-25T19:10:56.193Z,4.93
2018-07-25T19:13:29.725Z,4.63
2018-07-25T19:15:57.869Z,4.60
2018-07-25T19:18:26.015Z,4.53
2018-07-25T19:20:54.160Z,4.37
2018-07-25T19:23:22.286Z,4.77
2018-07-25T19:25:50.488Z,3.90
2018-07-25T19:28:19.877Z,4.30
2018-07-25T19:30:48.049Z,4.10
2018-07-25T19:33:16.173Z,3.90
2018-07-25T19:35:44.344Z,4.03
2018-07-25T19:38:12.783Z,3.93
2018-07-25T19:40:40.940Z,4.50
2018-07-25T19:43:09.081Z,3.90
2018-07-25T19:45:37.637Z,4.40
2018-07-25T19:48:05.878Z,4.83
2018-07-25T19:50:34.140Z,5.10
2018-07-25T19:53:02.186Z,4.70
2018-07-25T19:55:30.313Z,4.80
2018-07-25T19:57:58.480Z,5.33
2018-07-25T20:00:26.616Z,4.35
2018-07-25T20:02:54.741Z,5.40
2018-07-25T20:05:22.994Z,5.60
2018-07-25T20:07:51.122Z,5.20
2018-07-25T20:10:19.251Z,5.93
2018-07-25T20:12:47.432Z,5.47
2018-07-25T20:16:21.495Z,4.93
2018-07-25T20:18:49.643Z,4.90
2018-07-25T20:21:17.790Z,5.20
2018-07-25T20:23:45.942Z,5.60
2018-07-25T20:26:15.947Z,4.90
2018-07-25T20:28:44.218Z,5.13
2018-07-25T20:31:12.361Z,4.90
2018-07-25T20:33:40.591Z,6.40
2018-07-25T20:36:08.777Z,6.37
2018-07-25T20:38:36.971Z,6.53
2018-07-25T20:41:05.109Z,6.50
2018-07-25T20:43:33.110Z,6.63
2018-07-25T20:46:01.256Z,7.73
2018-07-25T20:48:29.443Z,7.30
2018-07-25T20:50:57.599Z,7.00
2018-07-25T20:53:25.754Z,7.00
2018-07-25T20:55:53.889Z,6.53
2018-07-25T20:58:22.046Z,6.57
2018-07-25T21:00:50.237Z,5.70
2018-07-25T21:03:18.305Z,5.73
2018-07-25T21:05:46.438Z,5.60
2018-07-25T21:08:14.624Z,7.07
2018-07-25T21:10:42.758Z,6.50
2018-07-25T21:13:10.893Z,6.13
2018-07-25T21:15:39.026Z,5.80
2018-07-25T21:18:07.151Z,5.93
2018-07-25T21:20:35.289Z,6.12
2018-07-25T21:23:03.212Z,6.27
2018-07-25T21:25:31.365Z,5.60
2018-07-25T21:27:59.576Z,6.00
2018-07-25T21:30:27.787Z,5.47
2018-07-25T21:32:55.920Z,5.33
2018-07-25T21:35:24.067Z,5.17
2018-07-25T21:37:52.491Z,5.30
2018-07-25T21:40:53.001Z,5.83
2018-07-25T21:43:21.145Z,5.70
2018-07-25T21:45:49.279Z,5.90
2018-07-25T21:48:17.467Z,5.40
2018-07-25T21:50:45.543Z,5.27
2018-07-25T21:53:13.681Z,5.90
2018-07-25T21:55:41.800Z,5.60
2018-07-25T21:58:09.934Z,5.27
2018-07-25T22:00:42.178Z,5.40
2018-07-25T22:03:10.312Z,6.00
2018-07-25T22:05:38.529Z,4.67
2018-07-25T22:08:06.678Z,5.13
2018-07-25T22:10:34.809Z,5.60
2018-07-25T22:13:02.949Z,5.00
2018-07-25T22:15:31.137Z,5.20
2018-07-25T22:17:59.286Z,5.70
2018-07-25T22:20:27.475Z,6.30
2018-07-25T22:22:55.661Z,6.07
2018-07-25T22:25:23.789Z,6.10
2018-07-25T22:27:51.917Z,6.70
2018-07-25T22:30:20.064Z,6.50
2018-07-25T22:32:48.169Z,6.30
2018-07-25T22:35:16.286Z,6.57
2018-07-25T22:37:44.443Z,6.50
2018-07-25T22:40:12.556Z,6.30
2018-07-25T22:42:40.694Z,6.83
2018-07-25T22:45:08.812Z,6.50
2018-07-25T22:47:36.952Z,5.80
2018-07-25T22:50:05.103Z,5.80
2018-07-25T22:52:33.242Z,6.33
2018-07-25T22:55:01.353Z,5.97
2018-07-25T22:57:29.489Z,6.20
2018-07-25T22:59:57.626Z,5.70
2018-07-25T23:02:25.760Z,5.40
2018-07-25T23:04:53.886Z,5.90
2018-07-25T23:07:22.014Z,5.77
2018-07-25T23:09:50.237Z,5.60
2018-07-25T23:12:18.373Z,5.30
2018-07-25T23:14:46.515Z,6.37
2018-07-25T23:17:14.638Z,6.23
2018-07-25T23:19:42.774Z,6.17
2018-07-25T23:22:10.921Z,6.37
2018-07-25T23:24:39.052Z,5.57
2018-07-25T23:27:07.209Z,6.00
2018-07-25T23:29:35.357Z,6.10
2018-07-25T23:32:03.481Z,7.27
2018-07-25T23:34:31.651Z,6.53
2018-07-25T23:36:59.787Z,6.33
2018-07-25T23:39:27.926Z,6.90
2018-07-25T23:41:56.070Z,6.63
2018-07-25T23:44:24.214Z,6.00
2018-07-25T23:46:52.362Z,6.00
2018-07-25T23:49:20.500Z,6.10
2018-07-25T23:51:48.629Z,6.13
2018-07-25T23:54:16.771Z,5.97
2018-07-25T23:56:44.909Z,6.50
2018-07-25T23:59:13.058Z,6.57
